Time;durP1;ratioP1;P1;durP2;ratioP2;P2;SDS_P1;SDS_P2;PMS_P1;PMS_P2;Temp;Humidity;BMP_temperature;BMP_pressure;BME280_temperature;BME280_humidity;BME280_pressure;Samples;Min_cycle;Max_cycle;Signal;HPM_P1;HPM_P2
2021/09/15 00:02:14;;;;;;;;;;;;;;;;;;10258522;29;19962;-71
2021/09/15 00:07:17;;;;;;;;;;;;;;;;;;10257996;29;19931;-75
2021/09/15 00:12:21;;;;;;;;;;;;;;;;;;10273733;28;19926;-76
2021/09/15 00:17:23;;;;;;;;;;;;;;;;;;10297195;28;19929;-76
2021/09/15 00:22:26;;;;;;;;;;;;;;;;;;10297469;28;19926;-71
2021/09/15 00:27:30;;;;;;;;;;;;;;;;;;10297339;28;19957;-76
2021/09/15 00:32:33;;;;;;;;;;;;;;;;;;10296847;28;19930;-76
2021/09/15 00:37:37;;;;;;;;;;;;;;;;;;10295623;28;19969;-71
2021/09/15 00:42:39;;;;;;;;;;;;;;;;;;10311823;28;19933;-76
2021/09/15 00:47:42;;;;;;;;;;;;;;;;;;10311787;28;19954;-76
2021/09/15 00:52:47;;;;;;;;;;;;;;;;;;10328037;28;19926;-74
2021/09/15 00:57:51;;;;;;;;;;;;;;;;;;10310877;28;19933;-76
2021/09/15 01:02:54;;;;;;;;;;;;;;;;;;10295956;28;19926;-74
2021/09/15 01:08:00;;;;;;;;;;;;;;;;;;10310335;28;20025;-71
2021/09/15 01:13:03;;;;;;;;;;;;;;;;;;10311041;28;19930;-74
2021/09/15 01:18:29;;;;;;;;;;;;;;;;;;10303032;28;20374;-75
2021/09/15 01:23:39;;;;;;;;;;;;;;;;;;10293825;28;19930;-71
2021/09/15 01:29:00;;;;;;;;;;;;;;;;;;10296043;28;19927;-74
2021/09/15 01:34:03;;;;;;;;;;;;;;;;;;10293439;28;19937;-71
2021/09/15 01:39:06;;;;;;;;;;;;;;;;;;10309278;28;19992;-73
2021/09/15 01:44:08;;;;;;;;;;;;;;;;;;10309063;28;20286;-74
2021/09/15 01:49:11;;;;;;;;;;;;;;;;;;10308691;28;19926;-74
2021/09/15 01:54:14;;;;;;;;;;;;;;;;;;10293933;28;19926;-75
2021/09/15 01:59:17;;;;;;;;;;;;;;;;;;10308561;28;19926;-71
2021/09/15 02:04:42;;;;;;;;;;;;;;;;;;10293332;28;19930;-75
2021/09/15 02:10:10;;;;;;;;;;;;;;;;;;10293410;28;19926;-71
2021/09/15 02:15:14;;;;;;;;;;;;;;;;;;10308255;28;19930;-75
2021/09/15 02:20:20;;;;;;;;;;;;;;;;;;10275916;28;19977;-76
2021/09/15 02:25:42;;;;;;;;;;;;;;;;;;10293106;28;19933;-76
2021/09/15 02:31:02;;;;;;;;;;;;;;;;;;10277984;28;19933;-71
2021/09/15 02:36:28;;;;;;;;;;;;;;;;;;10292039;28;19930;-75
2021/09/15 02:41:39;;;;;;;;;;;;;;;;;;10307220;28;19925;-74
2021/09/15 02:47:05;;;;;;;;;;;;;;;;;;10292859;28;20393;-71
2021/09/15 02:52:26;;;;;;;;;;;;;;;;;;10293160;28;20068;-71
2021/09/15 02:57:54;;;;;;;;;;;;;;;;;;10307009;28;19933;-74
2021/09/15 03:03:07;;;;;;;;;;;;;;;;;;10291721;28;19976;-74
2021/09/15 03:08:32;;;;;;;;;;;;;;;;;;10293219;28;19926;-74
2021/09/15 03:13:35;;;;;;;;;;;;;;;;;;10306906;28;19926;-75
2021/09/15 03:18:37;;;;;;;;;;;;;;;;;;10306854;28;19933;-74
2021/09/15 03:23:40;;;;;;;;;;;;;;;;;;10292284;28;19926;-71
2021/09/15 03:28:44;;;;;;;;;;;;;;;;;;10307747;28;19936;-76
2021/09/15 03:33:46;;;;;;;;;;;;;;;;;;10290705;28;19930;-71
2021/09/15 03:38:55;;;;;;;;;;;;;;;;;;10290673;28;20333;-76
2021/09/15 03:44:01;;;;;;;;;;;;;;;;;;10306768;28;19938;-71
2021/09/15 03:49:04;;;;;;;;;;;;;;;;;;10297932;28;19992;-71
2021/09/15 03:54:07;;;;;;;;;;;;;;;;;;10281017;28;19926;-75
2021/09/15 03:59:09;;;;;;;;;;;;;;;;;;10313542;28;19972;-72
2021/09/15 04:04:13;;;;;;;;;;;;;;;;;;10313573;28;20286;-71
2021/09/15 04:09:19;;;;;;;;;;;;;;;;;;10312652;28;19927;-72
2021/09/15 04:14:24;;;;;;;;;;;;;;;;;;10312603;28;20361;-71
2021/09/15 04:19:31;;;;;;;;;;;;;;;;;;10311433;28;20012;-76
2021/09/15 04:35:23;;;;;;;;;;;;;;;;;;10295694;28;20376;-76
2021/09/15 04:40:25;;;;;;;;;;;;;;;;;;10311181;28;19927;-71
2021/09/15 04:45:28;;;;;;;;;;;;;;;;;;10297390;28;19948;-72
2021/09/15 04:50:31;;;;;;;;;;;;;;;;;;10312182;28;19926;-70
2021/09/15 04:55:33;;;;;;;;;;;;;;;;;;10310614;28;19953;-72
2021/09/15 05:00:37;;;;;;;;;;;;;;;;;;10311215;28;20505;-74
2021/09/15 05:05:44;;;;;;;;;;;;;;;;;;10311084;28;20453;-70
2021/09/15 05:10:51;;;;;;;;;;;;;;;;;;10293415;28;19969;-70
2021/09/15 05:15:58;;;;;;;;;;;;;;;;;;10294018;28;19926;-75
2021/09/15 05:21:01;;;;;;;;;;;;;;;;;;10293922;28;19926;-71
2021/09/15 05:26:04;;;;;;;;;;;;;;;;;;10293934;28;19926;-72
2021/09/15 05:31:09;;;;;;;;;;;;;;;;;;10277407;28;19926;-76
2021/09/15 05:36:14;;;;;;;;;;;;;;;;;;10293436;28;19937;-77
2021/09/15 05:41:21;;;;;;;;;;;;;;;;;;10292483;28;19932;-76
2021/09/15 05:46:25;;;;;;;;;;;;;;;;;;10293332;28;19953;-78
2021/09/15 05:51:28;;;;;;;;;;;;;;;;;;10292075;28;19926;-76
2021/09/15 05:56:31;;;;;;;;;;;;;;;;;;10292097;28;20389;-74
2021/09/15 06:01:33;;;;;;;;;;;;;;;;;;10276167;28;19937;-77
2021/09/15 06:06:36;;;;;;;;;;;;;;;;;;10292274;28;20251;-62
2021/09/15 06:11:46;;;;;;;;;;;;;;;;;;10291521;28;19926;-63
2021/09/15 06:16:49;;;;;;;;;;;;;;;;;;10290559;28;19950;-63
2021/09/15 06:21:52;;;;;;;;;;;;;;;;;;10290741;28;19933;-63
2021/09/15 06:27:17;;;;;;;;;;;;;;;;;;10291910;28;20429;-61
2021/09/15 06:32:19;;;;;;;;;;;;;;;;;;10296152;28;19933;-63
2021/09/15 06:37:21;;;;;;;;;;;;;;;;;;10321888;28;19929;-60
2021/09/15 06:42:24;;;;;;;;;;;;;;;;;;10291721;28;19930;-61
2021/09/15 06:47:26;;;;;;;;;;;;;;;;;;10292410;28;19933;-61
2021/09/15 06:52:28;;;;;;;;;;;;;;;;;;10291575;28;20383;-60
2021/09/15 06:57:31;;;;;;;;;;;;;;;;;;10290560;28;19926;-61
2021/09/15 07:02:36;;;;;;;;;;;;;;;;;;10292343;28;19933;-60
2021/09/15 07:07:38;;;;;;;;;;;;;;;;;;10291843;28;19926;-60
2021/09/15 07:12:41;;;;;;;;;;;;;;;;;;10292708;28;19933;-59
2021/09/15 07:17:44;;;;;;;;;;;;;;;;;;10289553;28;19953;-58
2021/09/15 07:22:46;;;;;;;;;;;;;;;;;;10295436;28;19926;-61
2021/09/15 07:27:49;;;;;;;;;;;;;;;;;;10298969;28;19933;-61
2021/09/15 07:32:51;;;;;;;;;;;;;;;;;;10299757;28;19926;-61
2021/09/15 07:37:57;;;;;;;;;;;;;;;;;;10299441;28;19936;-62
2021/09/15 07:42:59;;;;;;;;;;;;;;;;;;10298279;28;19926;-62
2021/09/15 07:48:02;;;;;;;;;;;;;;;;;;10298070;28;19926;-61
2021/09/15 07:53:04;;;;;;;;;;;;;;;;;;10298550;28;19930;-61
2021/09/15 07:58:08;;;;;;;;;;;;;;;;;;10297071;28;19958;-60
2021/09/15 08:03:10;;;;;;;;;;;;;;;;;;10297769;28;19972;-62
2021/09/15 08:08:14;;;;;;;;;;;;;;;;;;10297411;28;19926;-61
2021/09/15 08:13:19;;;;;;;;;;;;;;;;;;10297632;28;19930;-59
2021/09/15 08:18:22;;;;;;;;;;;;;;;;;;10297145;28;19926;-61
2021/09/15 08:23:33;;;;;;;;;;;;;;;;;;10296558;28;19925;-59
2021/09/15 08:28:36;;;;;;;;;;;;;;;;;;10297558;28;19932;-60
2021/09/15 08:33:39;;;;;;;;;;;;;;;;;;10297074;28;19930;-61
2021/09/15 08:43:56;;;;;;;;;;;;;;;;;;10293548;28;19926;-61
2021/09/15 08:48:59;;;;;;;;;;;;;;;;;;10294918;28;19933;-61
2021/09/15 08:54:01;;;;;;;;;;;;;;;;;;10295787;28;19926;-61
2021/09/15 08:59:06;;;;;;;;;;;;;;;;;;10278521;28;20433;-60
2021/09/15 09:04:08;;;;;;;;;;;;;;;;;;10295119;28;19977;-62
2021/09/15 09:09:11;;;;;;;;;;;;;;;;;;10295056;28;19926;-63
2021/09/15 09:14:13;;;;;;;;;;;;;;;;;;10277474;28;20362;-63
2021/09/15 09:19:15;;;;;;;;;;;;;;;;;;10295287;28;19997;-62
2021/09/15 09:24:18;;;;;;;;;;;;;;;;;;10294626;28;19930;-62
2021/09/15 09:29:24;;;;;;;;;;;;;;;;;;10289311;28;20385;-63
2021/09/15 09:34:27;;;;;;;;;;;;;;;;;;10262782;28;20012;-61
2021/09/15 09:39:30;;;;;;;;;;;;;;;;;;10287366;28;19937;-59
2021/09/15 09:44:32;;;;;;;;;;;;;;;;;;10274230;28;20259;-62
2021/09/15 09:49:34;;;;;;;;;;;;;;;;;;10293436;28;20289;-63
2021/09/15 09:54:37;;;;;;;;;;;;;;;;;;10293991;28;19967;-60
2021/09/15 09:59:39;;;;;;;;;;;;;;;;;;10293805;28;20274;-60
2021/09/15 10:04:41;;;;;;;;;;;;;;;;;;10294192;28;19926;-62
2021/09/15 10:09:44;;;;;;;;;;;;;;;;;;10293597;28;19926;-62
2021/09/15 10:14:46;;;;;;;;;;;;;;;;;;10293655;28;19930;-63
2021/09/15 10:19:48;;;;;;;;;;;;;;;;;;10292922;28;19926;-62
2021/09/15 10:24:51;;;;;;;;;;;;;;;;;;10292222;28;20326;-62
2021/09/15 10:29:53;;;;;;;;;;;;;;;;;;10293325;28;19930;-62
2021/09/15 10:34:56;;;;;;;;;;;;;;;;;;10293172;28;20007;-61
2021/09/15 10:39:58;;;;;;;;;;;;;;;;;;10292729;28;19926;-62
2021/09/15 10:45:00;;;;;;;;;;;;;;;;;;10292535;28;19926;-60
2021/09/15 10:50:03;;;;;;;;;;;;;;;;;;10291839;28;19930;-61
2021/09/15 10:55:11;;;;;;;;;;;;;;;;;;10296219;28;20282;-62
2021/09/15 11:00:14;;;;;;;;;;;;;;;;;;10300435;28;19934;-61
2021/09/15 11:05:16;;;;;;;;;;;;;;;;;;10300601;28;20452;-61
2021/09/15 11:10:18;;;;;;;;;;;;;;;;;;10300429;28;19984;-61
2021/09/15 11:15:21;;;;;;;;;;;;;;;;;;10299522;28;20262;-63
2021/09/15 11:20:23;;;;;;;;;;;;;;;;;;10299474;28;19930;-61
2021/09/15 11:25:25;;;;;;;;;;;;;;;;;;10299721;28;19933;-60
2021/09/15 11:30:28;;;;;;;;;;;;;;;;;;10299809;28;20369;-61
2021/09/15 11:35:30;;;;;;;;;;;;;;;;;;10300068;28;19933;-61
2021/09/15 11:40:33;;;;;;;;;;;;;;;;;;10297075;28;20282;-61
2021/09/15 11:45:35;;;;;;;;;;;;;;;;;;10297461;28;19926;-62
2021/09/15 11:50:38;;;;;;;;;;;;;;;;;;10298216;28;20290;-61
2021/09/15 12:01:01;;;;;;;;;;;;;;;;;;10338199;28;19953;-61
2021/09/15 12:06:03;;;;;;;;;;;;;;;;;;10299186;28;20315;-61
2021/09/15 12:11:06;;;;;;;;;;;;;;;;;;10297182;28;19926;-61
2021/09/15 12:16:08;;;;;;;;;;;;;;;;;;10298040;28;19981;-61
2021/09/15 12:21:10;;;;;;;;;;;;;;;;;;10297361;28;19926;-61
2021/09/15 12:26:13;;;;;;;;;;;;;;;;;;10297688;28;19926;-60
2021/09/15 12:31:15;;;;;;;;;;;;;;;;;;10297206;28;19973;-61
2021/09/15 12:36:18;;;;;;;;;;;;;;;;;;10297424;28;20314;-61
2021/09/15 12:41:20;;;;;;;;;;;;;;;;;;10297142;28;20378;-60
2021/09/15 12:46:23;;;;;;;;;;;;;;;;;;10297897;28;19934;-61
2021/09/15 12:51:25;;;;;;;;;;;;;;;;;;10296557;28;19926;-60
2021/09/15 12:56:28;;;;;;;;;;;;;;;;;;10296828;28;20013;-61
2021/09/15 13:01:30;;;;;;;;;;;;;;;;;;10296519;28;19933;-60
2021/09/15 13:06:32;;;;;;;;;;;;;;;;;;10296178;28;19977;-61
2021/09/15 13:11:35;;;;;;;;;;;;;;;;;;10290014;28;20452;-60
2021/09/15 13:16:37;;;;;;;;;;;;;;;;;;10288724;28;20298;-61
2021/09/15 13:21:40;;;;;;;;;;;;;;;;;;10289582;28;19941;-62
2021/09/15 13:26:42;;;;;;;;;;;;;;;;;;10289435;28;19933;-62
2021/09/15 13:31:44;;;;;;;;;;;;;;;;;;10290057;28;19930;-60
2021/09/15 13:36:47;;;;;;;;;;;;;;;;;;10286307;28;19922;-59
2021/09/15 13:41:49;;;;;;;;;;;;;;;;;;10289318;28;19930;-60
2021/09/15 13:46:51;;;;;;;;;;;;;;;;;;10289509;28;19933;-59
2021/09/15 13:51:54;;;;;;;;;;;;;;;;;;10306838;28;19980;-61
2021/09/15 13:57:13;;;;;;;;;;;;;;;;;;10293619;28;19930;-61
2021/09/15 14:02:15;;;;;;;;;;;;;;;;;;10329464;28;19925;-61
2021/09/15 14:07:17;;;;;;;;;;;;;;;;;;10329349;28;19976;-61
2021/09/15 14:12:20;;;;;;;;;;;;;;;;;;10290705;28;19926;-60
2021/09/15 14:17:22;;;;;;;;;;;;;;;;;;10288351;28;19953;-61
2021/09/15 14:22:25;;;;;;;;;;;;;;;;;;10287373;28;19938;-62
2021/09/15 14:27:28;;;;;;;;;;;;;;;;;;10288554;28;19938;-61
2021/09/15 14:32:30;;;;;;;;;;;;;;;;;;10291072;28;19934;-62
2021/09/15 14:37:33;;;;;;;;;;;;;;;;;;10292037;28;19926;-62
2021/09/15 14:42:39;;;;;;;;;;;;;;;;;;10291877;28;20485;-62
2021/09/15 14:47:41;;;;;;;;;;;;;;;;;;10292869;28;19933;-61
2021/09/15 14:52:43;;;;;;;;;;;;;;;;;;10292898;28;19926;-62
2021/09/15 14:57:46;;;;;;;;;;;;;;;;;;10292811;28;19949;-62
2021/09/15 15:02:48;;;;;;;;;;;;;;;;;;10291040;28;19933;-62
2021/09/15 15:07:50;;;;;;;;;;;;;;;;;;10288603;28;19937;-63
2021/09/15 15:12:53;;;;;;;;;;;;;;;;;;10287651;28;19926;-64
2021/09/15 15:17:55;;;;;;;;;;;;;;;;;;10285321;28;19930;-66
2021/09/15 15:22:59;;;;;;;;;;;;;;;;;;10267368;28;20559;-70
2021/09/15 15:28:01;;;;;;;;;;;;;;;;;;10257763;28;19930;-68
2021/09/15 15:33:04;;;;;;;;;;;;;;;;;;10286260;28;19930;-68
2021/09/15 15:38:06;;;;;;;;;;;;;;;;;;10286238;28;19930;-71
2021/09/15 15:43:08;;;;;;;;;;;;;;;;;;10292658;28;19967;-72
2021/09/15 15:48:11;;;;;;;;;;;;;;;;;;10294544;28;19933;-72
2021/09/15 15:53:13;;;;;;;;;;;;;;;;;;10290321;28;20389;-71
2021/09/15 15:58:16;;;;;;;;;;;;;;;;;;10276635;28;19930;-70
2021/09/15 16:03:20;;;;;;;;;;;;;;;;;;10292875;28;19926;-70
2021/09/15 16:08:23;;;;;;;;;;;;;;;;;;10293727;28;19949;-72
2021/09/15 16:13:25;;;;;;;;;;;;;;;;;;10305458;28;20382;-70
2021/09/15 16:18:27;;;;;;;;;;;;;;;;;;10297213;28;20524;-75
2021/09/15 16:23:30;;;;;;;;;;;;;;;;;;10295619;28;19926;-70
2021/09/15 16:28:33;;;;;;;;;;;;;;;;;;10303206;28;19926;-69
2021/09/15 16:33:36;;;;;;;;;;;;;;;;;;10295976;28;19930;-70
2021/09/15 16:38:38;;;;;;;;;;;;;;;;;;10275827;28;19934;-72
2021/09/15 16:43:40;;;;;;;;;;;;;;;;;;10295861;28;20396;-73
2021/09/15 16:48:43;;;;;;;;;;;;;;;;;;10296071;28;19973;-71
2021/09/15 16:53:46;;;;;;;;;;;;;;;;;;10301091;28;19930;-71
2021/09/15 16:58:51;;;;;;;;;;;;;;;;;;10313543;28;19926;-74
2021/09/15 17:03:56;;;;;;;;;;;;;;;;;;10311694;28;19933;-68
2021/09/15 17:08:59;;;;;;;;;;;;;;;;;;10310392;28;19926;-69
2021/09/15 17:14:01;;;;;;;;;;;;;;;;;;10310509;28;19926;-73
2021/09/15 17:19:07;;;;;;;;;;;;;;;;;;10310936;28;19973;-68
2021/09/15 17:24:09;;;;;;;;;;;;;;;;;;10310304;28;19972;-68
2021/09/15 17:29:21;;;;;;;;;;;;;;;;;;10295481;28;19953;-67
2021/09/15 17:34:25;;;;;;;;;;;;;;;;;;10309846;28;19926;-71
2021/09/15 17:39:36;;;;;;;;;;;;;;;;;;10295264;28;19934;-67
2021/09/15 17:44:39;;;;;;;;;;;;;;;;;;10294658;28;19926;-68
2021/09/15 17:49:41;;;;;;;;;;;;;;;;;;10309537;28;19926;-72
2021/09/15 17:54:44;;;;;;;;;;;;;;;;;;10294958;28;19926;-67
2021/09/15 17:59:47;;;;;;;;;;;;;;;;;;10292208;28;19933;-72
2021/09/15 18:04:51;;;;;;;;;;;;;;;;;;10291727;28;19926;-72
2021/09/15 18:09:54;;;;;;;;;;;;;;;;;;10294181;28;19939;-68
2021/09/15 18:14:58;;;;;;;;;;;;;;;;;;10294125;28;19926;-71
2021/09/15 18:20:01;;;;;;;;;;;;;;;;;;10293776;28;19933;-67
2021/09/15 18:25:03;;;;;;;;;;;;;;;;;;10272457;28;19961;-72
2021/09/15 18:30:08;;;;;;;;;;;;;;;;;;10292151;28;19926;-68
2021/09/15 18:35:11;;;;;;;;;;;;;;;;;;10293156;28;19969;-68
2021/09/15 18:40:13;;;;;;;;;;;;;;;;;;10293499;28;19938;-68
2021/09/15 18:45:16;;;;;;;;;;;;;;;;;;10293473;28;19937;-68
2021/09/15 18:50:22;;;;;;;;;;;;;;;;;;10307819;28;20382;-74
2021/09/15 18:55:27;;;;;;;;;;;;;;;;;;10292706;28;19926;-74
2021/09/15 19:00:34;;;;;;;;;;;;;;;;;;10289817;28;20386;-74
2021/09/15 19:05:40;;;;;;;;;;;;;;;;;;10291659;28;19930;-73
2021/09/15 19:10:52;;;;;;;;;;;;;;;;;;10290955;28;19949;-74
2021/09/15 19:16:01;;;;;;;;;;;;;;;;;;10296648;28;19926;-74
2021/09/15 19:21:21;;;;;;;;;;;;;;;;;;10282608;28;19930;-72
2021/09/15 19:26:26;;;;;;;;;;;;;;;;;;10298494;28;20674;-73
2021/09/15 19:31:29;;;;;;;;;;;;;;;;;;10309164;28;20017;-75
2021/09/15 19:36:34;;;;;;;;;;;;;;;;;;10297620;28;19926;-71
2021/09/15 19:41:39;;;;;;;;;;;;;;;;;;10293683;28;19929;-72
2021/09/15 19:46:46;;;;;;;;;;;;;;;;;;10291243;28;19961;-72
2021/09/15 19:51:49;;;;;;;;;;;;;;;;;;10294516;28;19926;-75
2021/09/15 19:56:53;;;;;;;;;;;;;;;;;;10277125;28;19945;-72
2021/09/15 20:02:03;;;;;;;;;;;;;;;;;;10294083;28;19933;-74
2021/09/15 20:07:09;;;;;;;;;;;;;;;;;;10303303;28;19925;-74
2021/09/15 20:12:12;;;;;;;;;;;;;;;;;;10332593;28;19930;-74
2021/09/15 20:17:16;;;;;;;;;;;;;;;;;;10314511;28;20013;-73
2021/09/15 20:22:22;;;;;;;;;;;;;;;;;;10290791;28;19937;-74
2021/09/15 20:27:28;;;;;;;;;;;;;;;;;;10289098;28;19981;-74
2021/09/15 20:32:35;;;;;;;;;;;;;;;;;;10292108;28;19964;-73
2021/09/15 20:37:43;;;;;;;;;;;;;;;;;;10291089;28;20736;-75
2021/09/15 20:42:57;;;;;;;;;;;;;;;;;;10447564;23;20410;-73
2021/09/15 20:48:07;;;;;;;;;;;;;;;;;;10367669;28;19925;-75
2021/09/15 20:53:11;;;;;;;;;;;;;;;;;;10372053;28;19929;-72
2021/09/15 20:58:14;;;;;;;;;;;;;;;;;;10371314;28;19934;-74
2021/09/15 21:03:17;;;;;;;;;;;;;;;;;;10370178;28;19988;-73
2021/09/15 21:08:24;;;;;;;;;;;;;;;;;;10371902;28;19930;-79
2021/09/15 21:13:27;;;;;;;;;;;;;;;;;;10369646;28;19933;-75
2021/09/15 21:18:30;;;;;;;;;;;;;;;;;;10371595;28;20860;-73
2021/09/15 21:23:33;;;;;;;;;;;;;;;;;;10372217;28;19925;-74
2021/09/15 21:28:36;;;;;;;;;;;;;;;;;;10375193;28;19988;-74
2021/09/15 21:33:39;;;;;;;;;;;;;;;;;;10377031;28;19932;-76
2021/09/15 21:38:43;;;;;;;;;;;;;;;;;;10375369;28;19932;-73
2021/09/15 21:43:46;;;;;;;;;;;;;;;;;;10376472;28;20400;-73
2021/09/15 21:48:50;;;;;;;;;;;;;;;;;;10374656;28;19925;-75
2021/09/15 21:53:53;;;;;;;;;;;;;;;;;;10374795;28;19933;-75
2021/09/15 21:58:56;;;;;;;;;;;;;;;;;;10374559;28;20439;-75
2021/09/15 22:04:00;;;;;;;;;;;;;;;;;;10373988;28;19936;-75
2021/09/15 22:09:02;;;;;;;;;;;;;;;;;;10374187;28;19925;-73
2021/09/15 22:14:07;;;;;;;;;;;;;;;;;;10374671;28;19936;-73
2021/09/15 22:19:09;;;;;;;;;;;;;;;;;;10373952;28;19929;-76
2021/09/15 22:24:12;;;;;;;;;;;;;;;;;;10373855;28;20439;-73
2021/09/15 22:29:14;;;;;;;;;;;;;;;;;;10373702;28;19925;-73
2021/09/15 22:34:19;;;;;;;;;;;;;;;;;;10373246;28;19933;-76
2021/09/15 22:39:21;;;;;;;;;;;;;;;;;;10372700;28;19980;-74
2021/09/15 22:44:31;;;;;;;;;;;;;;;;;;10371782;28;19936;-76
2021/09/15 22:49:33;;;;;;;;;;;;;;;;;;10372153;28;20292;-76
2021/09/15 22:54:36;;;;;;;;;;;;;;;;;;10373113;28;19926;-71
2021/09/15 22:59:38;;;;;;;;;;;;;;;;;;10372899;28;19980;-74
2021/09/15 23:04:41;;;;;;;;;;;;;;;;;;10373044;28;19986;-71
2021/09/15 23:09:43;;;;;;;;;;;;;;;;;;10373275;28;19929;-71
2021/09/15 23:14:45;;;;;;;;;;;;;;;;;;10373285;28;19931;-73
2021/09/15 23:19:48;;;;;;;;;;;;;;;;;;10373499;28;19957;-74
2021/09/15 23:24:50;;;;;;;;;;;;;;;;;;10350387;28;19952;-73
2021/09/15 23:29:53;;;;;;;;;;;;;;;;;;10373371;28;19926;-76
2021/09/15 23:34:55;;;;;;;;;;;;;;;;;;10373317;28;20295;-75
2021/09/15 23:39:58;;;;;;;;;;;;;;;;;;10373731;28;19948;-76
2021/09/15 23:45:01;;;;;;;;;;;;;;;;;;10372089;28;19932;-73
2021/09/15 23:50:03;;;;;;;;;;;;;;;;;;10372320;28;19933;-73
2021/09/15 23:55:07;;;;;;;;;;;;;;;;;;10372909;28;19925;-73
